createdAt,value
2023-05-08T00:01:57.493Z,100458.78
2023-05-08T00:04:30.989Z,100466.52
2023-05-08T00:07:04.403Z,100465.60
2023-05-08T00:09:39.050Z,100471.46
2023-05-08T00:12:12.273Z,100470.50
2023-05-08T00:14:45.683Z,100474.66
2023-05-08T00:17:19.268Z,100471.99
2023-05-08T00:19:53.303Z,100471.11
2023-05-08T00:22:26.855Z,100478.64
2023-05-08T00:25:00.205Z,100482.83
2023-05-08T00:27:34.757Z,100473.22
2023-05-08T00:30:10.816Z,100478.99
2023-05-08T00:32:47.257Z,100480.48
2023-05-08T00:35:21.073Z,100482.84
2023-05-08T00:37:54.672Z,100486.03
2023-05-08T00:40:28.632Z,100486.65
2023-05-08T00:43:01.970Z,100494.20
2023-05-08T00:45:39.043Z,100489.66
2023-05-08T00:48:12.284Z,100497.17
2023-05-08T00:50:47.141Z,100491.75
2023-05-08T00:53:22.155Z,100494.20
2023-05-08T00:55:56.016Z,100497.38
2023-05-08T00:58:31.550Z,100496.41
2023-05-08T01:01:07.118Z,100497.98
2023-05-08T01:03:41.423Z,100500.56
2023-05-08T01:06:14.753Z,100498.78
2023-05-08T01:08:50.125Z,100500.38
2023-05-08T01:11:27.538Z,100503.66
2023-05-08T01:14:06.060Z,100505.14
2023-05-08T01:16:43.691Z,100504.95
2023-05-08T01:19:27.378Z,100508.09
2023-05-08T01:22:04.262Z,100495.83
2023-05-08T01:24:52.622Z,100500.80
2023-05-08T01:28:05.830Z,100503.05
2023-05-08T01:30:50.923Z,100501.95
2023-05-08T01:33:29.516Z,100506.92
2023-05-08T01:36:07.554Z,100512.76
2023-05-08T01:38:44.069Z,100510.09
2023-05-08T01:41:21.378Z,100511.66
2023-05-08T01:43:57.823Z,100511.66
2023-05-08T01:46:32.680Z,100512.48
2023-05-08T01:49:10.349Z,100514.92
2023-05-08T01:51:47.359Z,100522.77
2023-05-08T01:57:05.945Z,100519.88
2023-05-08T01:59:40.377Z,100529.58
2023-05-08T02:02:17.227Z,100526.22
2023-05-08T02:04:50.878Z,100528.89
2023-05-08T02:07:25.935Z,100530.68
2023-05-08T02:10:00.762Z,100532.47
2023-05-08T02:12:35.782Z,100540.28
2023-05-08T02:15:13.031Z,100533.53
2023-05-08T02:17:48.300Z,100537.98
2023-05-08T02:20:22.992Z,100542.45
2023-05-08T02:22:55.908Z,100540.00
2023-05-08T02:25:31.711Z,100542.66
2023-05-08T02:28:06.982Z,100545.52
2023-05-08T02:30:41.065Z,100537.23
2023-05-08T02:33:16.269Z,100543.44
2023-05-08T02:35:51.689Z,100540.17
2023-05-08T02:38:27.014Z,100548.11
2023-05-08T02:41:03.585Z,100545.72
2023-05-08T02:43:37.047Z,100550.27
2023-05-08T02:46:14.962Z,100549.67
2023-05-08T02:48:51.639Z,100546.52
2023-05-08T02:51:28.243Z,100545.92
2023-05-08T02:54:06.561Z,100553.04
2023-05-08T02:56:42.726Z,100549.86
2023-05-08T02:59:21.699Z,100562.13
2023-05-08T03:01:58.645Z,100564.10
2023-05-08T03:07:15.773Z,100568.64
2023-05-08T03:09:51.961Z,100575.89
2023-05-08T03:12:28.157Z,100576.20
2023-05-08T03:15:05.935Z,100579.95
2023-05-08T03:17:43.800Z,100576.95
2023-05-08T03:20:19.340Z,100582.48
2023-05-08T03:22:54.802Z,100588.82
2023-05-08T03:25:29.999Z,100583.14
2023-05-08T03:28:05.371Z,100586.89
2023-05-08T03:30:41.295Z,100582.21
2023-05-08T03:33:18.788Z,100590.33
2023-05-08T03:35:53.784Z,100591.59
2023-05-08T03:38:27.187Z,100586.11
2023-05-08T03:41:02.205Z,100583.99
2023-05-08T03:43:37.115Z,100587.03
2023-05-08T03:46:11.225Z,100593.53
2023-05-08T03:48:45.806Z,100597.36
2023-05-08T03:51:19.160Z,100601.39
2023-05-08T03:53:52.259Z,100599.34
2023-05-08T03:56:26.208Z,100591.97
2023-05-08T03:59:04.126Z,100595.08
2023-05-08T04:01:41.399Z,100594.70
2023-05-08T04:04:19.354Z,100597.01
2023-05-08T04:06:57.125Z,100611.44
2023-05-08T04:09:35.162Z,100607.50
2023-05-08T04:12:12.219Z,100606.42
2023-05-08T04:14:49.417Z,100609.52
2023-05-08T04:17:27.107Z,100598.81
2023-05-08T04:20:04.893Z,100603.69
2023-05-08T04:22:40.248Z,100608.48
2023-05-08T04:25:16.623Z,100595.86
2023-05-08T04:27:51.932Z,100605.75
2023-05-08T04:30:26.064Z,100601.06
2023-05-08T04:33:00.522Z,100596.38
2023-05-08T04:35:34.733Z,100607.22
2023-05-08T04:38:08.393Z,100607.70
2023-05-08T04:40:41.407Z,100604.86
2023-05-08T04:43:15.824Z,100606.24
2023-05-08T04:45:48.885Z,100600.59
2023-05-08T04:48:21.880Z,100601.93
2023-05-08T04:50:54.996Z,100606.84
2023-05-08T04:53:28.431Z,100602.13
2023-05-08T04:56:01.752Z,100605.17
2023-05-08T04:58:34.856Z,100567.33
2023-05-08T05:01:08.354Z,100603.20
2023-05-08T05:03:41.333Z,100602.61
2023-05-08T05:06:14.678Z,100600.39
2023-05-08T05:08:51.076Z,100602.55
2023-05-08T05:11:24.237Z,100608.11
2023-05-08T05:13:57.894Z,100612.92
2023-05-08T05:16:30.964Z,100609.79
2023-05-08T05:19:04.896Z,100614.47
2023-05-08T05:21:38.897Z,100613.05
2023-05-08T05:24:12.202Z,100611.56
2023-05-08T05:26:45.995Z,100612.05
2023-05-08T05:29:19.236Z,100614.13
2023-05-08T05:31:52.419Z,100619.19
2023-05-08T05:34:25.666Z,100616.84
2023-05-08T05:36:58.843Z,100617.19
2023-05-08T05:39:41.650Z,100624.45
2023-05-08T05:42:18.138Z,100623.01
2023-05-08T05:44:51.128Z,100613.09
2023-05-08T05:47:24.115Z,100623.87
2023-05-08T05:49:57.204Z,100613.77
2023-05-08T05:52:34.609Z,100611.50
2023-05-08T05:55:09.416Z,100623.19
2023-05-08T05:57:42.637Z,100620.02
2023-05-08T06:00:17.538Z,100622.00
2023-05-08T06:02:55.635Z,100613.69
2023-05-08T06:05:28.791Z,100616.28
2023-05-08T06:08:03.368Z,100623.37
2023-05-08T06:10:36.665Z,100622.12
2023-05-08T06:13:10.120Z,100630.30
2023-05-08T06:15:43.276Z,100628.33
2023-05-08T06:18:16.719Z,100628.64
2023-05-08T06:20:49.707Z,100621.39
2023-05-08T06:23:22.763Z,100621.50
2023-05-08T06:25:55.926Z,100621.56
2023-05-08T06:28:28.942Z,100622.05
2023-05-08T06:31:03.751Z,100609.58
2023-05-08T06:33:38.813Z,100613.53
2023-05-08T06:36:13.287Z,100622.66
2023-05-08T06:38:46.278Z,100620.53
2023-05-08T06:41:21.995Z,100618.75
2023-05-08T06:44:01.317Z,100617.01
2023-05-08T06:46:34.482Z,100609.28
2023-05-08T06:49:07.463Z,100598.86
2023-05-08T06:51:40.430Z,100599.30
2023-05-08T06:54:13.453Z,100596.72
2023-05-08T06:56:46.483Z,100587.73
2023-05-08T06:59:19.929Z,100584.36
2023-05-08T07:01:53.097Z,100581.75
2023-05-08T07:04:26.859Z,100584.41
2023-05-08T07:07:00.562Z,100578.88
2023-05-08T07:09:34.868Z,100576.37
2023-05-08T07:12:09.607Z,100573.50
2023-05-08T07:14:42.716Z,100568.72
2023-05-08T07:17:16.281Z,100569.50
2023-05-08T07:19:52.740Z,100563.82
2023-05-08T07:22:25.892Z,100563.82
2023-05-08T07:24:58.983Z,100558.02
2023-05-08T07:27:33.160Z,100566.51
2023-05-08T07:30:07.473Z,100558.63
2023-05-08T07:32:40.559Z,100556.89
2023-05-08T07:35:13.876Z,100552.47
2023-05-08T07:37:50.176Z,100551.80
2023-05-08T07:40:23.630Z,100561.55
2023-05-08T07:42:57.064Z,100558.42
2023-05-08T07:45:30.514Z,100555.55
2023-05-08T07:48:10.129Z,100526.17
2023-05-08T07:50:45.677Z,100546.48
2023-05-08T07:53:28.508Z,100548.27
2023-05-08T07:56:01.593Z,100543.37
2023-05-08T07:58:36.600Z,100547.88
2023-05-08T08:01:13.232Z,100548.83
2023-05-08T08:03:46.865Z,100554.47
2023-05-08T08:06:20.475Z,100555.94
2023-05-08T08:08:53.765Z,100559.44
2023-05-08T08:11:27.662Z,100571.38
2023-05-08T08:14:03.795Z,100564.09
2023-05-08T08:16:39.505Z,100574.72
2023-05-08T08:19:12.913Z,100577.15
2023-05-08T08:21:47.244Z,100572.55
2023-05-08T08:24:20.725Z,100580.34
2023-05-08T08:26:54.030Z,100573.98
2023-05-08T08:29:27.269Z,100571.47
2023-05-08T08:32:00.739Z,100578.40
2023-05-08T08:34:35.632Z,100570.02
2023-05-08T08:37:08.964Z,100563.87
2023-05-08T08:39:42.153Z,100570.72
2023-05-08T08:42:16.861Z,100566.42
2023-05-08T08:44:50.227Z,100567.48
2023-05-08T08:47:26.671Z,100579.94
2023-05-08T08:50:03.233Z,100585.19
2023-05-08T08:52:43.152Z,100582.87
2023-05-08T08:55:19.501Z,100581.39
2023-05-08T09:00:39.888Z,100578.44
2023-05-08T09:03:13.835Z,100583.38
2023-05-08T09:05:49.028Z,100582.97
2023-05-08T09:08:22.467Z,100561.84
2023-05-08T09:10:57.247Z,100581.67
2023-05-08T09:13:31.628Z,100580.44
2023-05-08T09:16:05.476Z,100574.62
2023-05-08T09:18:39.052Z,100568.60
2023-05-08T09:21:12.614Z,100562.39
2023-05-08T09:24:02.625Z,100569.26
2023-05-08T09:26:37.687Z,100576.20
2023-05-08T09:29:19.020Z,100570.73
2023-05-08T09:31:53.367Z,100569.69
2023-05-08T09:34:28.740Z,100582.11
2023-05-08T09:37:21.184Z,100568.55
2023-05-08T09:40:03.951Z,100576.10
2023-05-08T09:42:41.529Z,100560.20
2023-05-08T09:45:17.889Z,100557.91
2023-05-08T09:47:53.084Z,100556.98
2023-05-08T09:50:29.276Z,100558.53
2023-05-08T09:53:02.687Z,100554.08
2023-05-08T09:55:50.899Z,100549.94
2023-05-08T09:58:25.169Z,100552.80
2023-05-08T10:01:02.555Z,100545.18
2023-05-08T10:03:51.623Z,100543.47
2023-05-08T10:06:25.259Z,100543.37
2023-05-08T10:09:15.272Z,100545.99
2023-05-08T10:11:54.714Z,100547.00
2023-05-08T10:14:28.108Z,100543.47
2023-05-08T10:17:04.067Z,100539.97
2023-05-08T10:19:41.581Z,100539.86
2023-05-08T10:23:07.312Z,100544.16
2023-05-08T10:28:31.071Z,100533.16
2023-05-08T10:31:07.423Z,100530.67
2023-05-08T10:33:42.665Z,100528.09
2023-05-08T10:36:16.788Z,100522.53
2023-05-08T10:38:51.340Z,100525.03
2023-05-08T10:41:24.528Z,100523.36
2023-05-08T10:44:03.180Z,100515.52
2023-05-08T10:46:41.176Z,100524.42
2023-05-08T10:49:20.324Z,100511.10
2023-05-08T10:52:01.465Z,100511.39
2023-05-08T10:54:38.189Z,100520.48
2023-05-08T10:57:13.072Z,100517.14
2023-05-08T10:59:48.820Z,100499.70
2023-05-08T11:02:30.035Z,100507.78
2023-05-08T11:05:18.127Z,100513.12
2023-05-08T11:07:59.199Z,100513.99
2023-05-08T11:10:35.740Z,100513.14
2023-05-08T11:13:10.184Z,100516.66
2023-05-08T11:15:45.785Z,100503.42
2023-05-08T11:18:19.662Z,100508.72
2023-05-08T11:21:00.137Z,100499.06
2023-05-08T11:23:35.238Z,100510.43
2023-05-08T11:26:10.370Z,100497.99
2023-05-08T11:28:48.437Z,100513.66
2023-05-08T11:31:22.982Z,100508.13
2023-05-08T11:33:56.172Z,100509.08
2023-05-08T11:36:29.550Z,100506.53
2023-05-08T11:39:11.814Z,100508.52
2023-05-08T11:41:44.858Z,100512.23
2023-05-08T11:44:24.276Z,100505.23
2023-05-08T11:46:59.080Z,100506.99
2023-05-08T11:49:32.342Z,100512.27
2023-05-08T11:52:06.979Z,100508.73
2023-05-08T11:54:40.243Z,100506.95
2023-05-08T11:57:14.777Z,100504.14
2023-05-08T11:59:52.281Z,100501.20
2023-05-08T12:05:28.922Z,100483.97
2023-05-08T12:08:07.045Z,100497.38
2023-05-08T12:10:52.587Z,100487.48
2023-05-08T12:13:29.803Z,100490.34
2023-05-08T12:16:04.407Z,100486.91
2023-05-08T12:18:39.241Z,100485.30
2023-05-08T12:21:13.352Z,100491.66
2023-05-08T12:23:46.920Z,100486.42
2023-05-08T12:26:20.883Z,100494.45
2023-05-08T12:28:59.440Z,100491.82
2023-05-08T12:31:36.282Z,100495.32
2023-05-08T12:34:10.156Z,100486.66
2023-05-08T12:36:45.501Z,100488.50
2023-05-08T12:39:19.992Z,100487.61
2023-05-08T12:41:54.315Z,100488.45
2023-05-08T12:44:28.453Z,100485.74
2023-05-08T12:47:06.633Z,100483.09
2023-05-08T12:49:41.583Z,100482.17
2023-05-08T12:52:18.189Z,100485.73
2023-05-08T12:54:51.938Z,100478.73
2023-05-08T12:57:25.627Z,100476.97
2023-05-08T13:00:05.435Z,100471.70
2023-05-08T13:02:47.419Z,100470.83
2023-05-08T13:05:13.836Z,100474.30
2023-05-08T13:07:47.314Z,100473.39
2023-05-08T13:10:24.458Z,100476.77
2023-05-08T13:12:56.480Z,100476.65
2023-05-08T13:15:30.165Z,100478.28
2023-05-08T13:18:03.756Z,100477.35
2023-05-08T13:20:37.457Z,100467.63
2023-05-08T13:23:12.791Z,100468.42
2023-05-08T13:25:46.208Z,100467.38
2023-05-08T13:28:20.011Z,100465.49
2023-05-08T13:30:53.745Z,100479.52
2023-05-08T13:33:32.791Z,100476.81
2023-05-08T13:36:07.740Z,100473.31
2023-05-08T13:38:41.822Z,100472.59
2023-05-08T13:41:18.067Z,100471.78
2023-05-08T13:43:51.948Z,100446.28
2023-05-08T13:46:26.746Z,100465.80
2023-05-08T13:49:00.557Z,100473.70
2023-05-08T13:51:34.366Z,100472.04
2023-05-08T13:54:08.131Z,100468.54
2023-05-08T13:59:27.538Z,100463.69
2023-05-08T14:02:02.886Z,100461.13
2023-05-08T14:04:36.433Z,100452.38
2023-05-08T14:07:09.761Z,100461.19
2023-05-08T14:09:43.354Z,100462.04
2023-05-08T14:19:04.098Z,100438.28
2023-05-08T14:21:43.937Z,100440.97
2023-05-08T14:24:19.398Z,100450.63
2023-05-08T14:26:52.792Z,100448.89
2023-05-08T14:29:27.174Z,100445.38
2023-05-08T14:32:00.500Z,100440.08
2023-05-08T14:34:33.637Z,100445.36
2023-05-08T14:37:06.663Z,100452.32
2023-05-08T14:39:42.128Z,100455.84
2023-05-08T14:42:22.860Z,100449.66
2023-05-08T14:44:53.891Z,100455.72
2023-05-08T14:47:27.395Z,100445.11
2023-05-08T14:50:16.296Z,100452.08
2023-05-08T14:52:55.215Z,100448.48
2023-05-08T14:55:29.048Z,100445.72
2023-05-08T14:58:02.286Z,100441.19
2023-05-08T15:00:35.553Z,100446.35
2023-05-08T15:03:08.965Z,100441.93
2023-05-08T15:09:36.825Z,100446.03
2023-05-08T15:12:10.997Z,100444.11
2023-05-08T15:14:44.027Z,100436.13
2023-05-08T15:17:17.048Z,100443.05
2023-05-08T15:19:50.306Z,100444.70
2023-05-08T15:22:26.406Z,100440.25
2023-05-08T15:25:00.899Z,100440.06
2023-05-08T15:27:34.825Z,100422.45
2023-05-08T15:30:10.366Z,100444.33
2023-05-08T15:32:46.321Z,100437.91
2023-05-08T15:35:19.831Z,100425.02
2023-05-08T15:37:52.835Z,100426.84
2023-05-08T15:40:25.936Z,100427.56
2023-05-08T15:42:59.754Z,100433.52
2023-05-08T15:45:35.789Z,100433.36
2023-05-08T15:48:10.466Z,100437.42
2023-05-08T15:50:46.343Z,100438.83
2023-05-08T15:53:19.249Z,100436.70
2023-05-08T15:55:52.246Z,100434.64
2023-05-08T15:58:25.723Z,100437.91
2023-05-08T16:00:58.773Z,100443.84
2023-05-08T16:03:31.774Z,100438.59
2023-05-08T16:06:08.440Z,100438.84
2023-05-08T16:08:41.481Z,100438.29
2023-05-08T16:11:14.573Z,100436.78
2023-05-08T16:13:47.844Z,100437.75
2023-05-08T16:16:21.082Z,100436.79
2023-05-08T16:18:54.078Z,100432.88
2023-05-08T16:21:27.330Z,100434.35
2023-05-08T16:24:00.616Z,100440.95
2023-05-08T16:26:33.941Z,100439.77
2023-05-08T16:29:07.068Z,100431.66
2023-05-08T16:31:40.165Z,100430.59
2023-05-08T16:34:13.382Z,100439.14
2023-05-08T16:36:49.286Z,100436.34
2023-05-08T16:39:22.939Z,100436.09
2023-05-08T16:41:56.306Z,100431.49
2023-05-08T16:44:29.689Z,100440.05
2023-05-08T16:47:03.416Z,100434.48
2023-05-08T16:49:48.391Z,100445.55
2023-05-08T16:52:21.939Z,100442.53
2023-05-08T16:54:55.426Z,100451.69
2023-05-08T16:57:30.947Z,100440.87
2023-05-08T17:00:08.024Z,100449.31
2023-05-08T17:02:47.300Z,100456.89
2023-05-08T17:05:24.229Z,100457.41
2023-05-08T17:07:57.488Z,100461.42
2023-05-08T17:10:32.720Z,100460.23
2023-05-08T17:13:07.703Z,100472.09
2023-05-08T17:15:41.223Z,100469.14
2023-05-08T17:18:15.582Z,100463.67
2023-05-08T17:20:51.829Z,100474.71
2023-05-08T17:23:28.172Z,100471.74
2023-05-08T17:26:02.480Z,100465.29
2023-05-08T17:28:38.569Z,100471.05
2023-05-08T17:31:13.261Z,100475.09
2023-05-08T17:33:48.163Z,100477.36
2023-05-08T17:39:13.954Z,100484.16
2023-05-08T17:41:48.666Z,100478.39
2023-05-08T17:44:22.579Z,100488.59
2023-05-08T17:46:55.748Z,100485.90
2023-05-08T17:49:30.132Z,100493.47
2023-05-08T17:52:06.254Z,100494.09
2023-05-08T17:54:45.175Z,100499.06
2023-05-08T17:57:20.779Z,100495.47
2023-05-08T17:59:58.793Z,100507.63
2023-05-08T18:02:35.652Z,100505.97
2023-05-08T18:05:14.163Z,100499.06
2023-05-08T18:07:49.257Z,100497.41
2023-05-08T18:10:25.008Z,100507.92
2023-05-08T18:12:58.837Z,100500.14
2023-05-08T18:15:32.337Z,100502.91
2023-05-08T18:18:06.698Z,100504.69
2023-05-08T18:20:41.477Z,100502.91
2023-05-08T18:23:15.630Z,100512.39
2023-05-08T18:25:51.357Z,100500.92
2023-05-08T18:28:28.526Z,100505.10
2023-05-08T18:31:03.116Z,100502.32
2023-05-08T18:33:38.585Z,100504.72
2023-05-08T18:42:26.049Z,100516.27
2023-05-08T18:45:00.415Z,100510.66
2023-05-08T18:47:37.435Z,100516.45
2023-05-08T19:06:27.689Z,100516.70
2023-05-08T19:24:18.159Z,100534.00
2023-05-08T19:26:54.585Z,100532.59
2023-05-08T19:29:34.161Z,100535.14
2023-05-08T19:32:11.015Z,100533.22
2023-05-08T19:34:47.306Z,100538.27
2023-05-08T19:37:20.898Z,100539.80
2023-05-08T19:39:54.916Z,100538.73
2023-05-08T19:42:28.282Z,100540.00
2023-05-08T19:45:01.566Z,100539.64
2023-05-08T19:47:35.167Z,100542.80
2023-05-08T19:50:14.593Z,100540.80
2023-05-08T19:52:48.859Z,100543.95
2023-05-08T19:55:22.102Z,100543.58
2023-05-08T19:57:55.117Z,100543.31
2023-05-08T20:00:28.785Z,100540.34
2023-05-08T20:05:43.524Z,100544.45
2023-05-08T20:08:17.565Z,100535.07
2023-05-08T20:10:53.778Z,100542.64
2023-05-08T20:13:29.627Z,100551.19
2023-05-08T20:16:03.435Z,100541.50
2023-05-08T20:18:37.603Z,100540.62
2023-05-08T20:21:10.903Z,100551.77
2023-05-08T20:23:44.102Z,100547.38
2023-05-08T20:26:20.053Z,100543.91
2023-05-08T20:28:53.431Z,100544.56
2023-05-08T20:31:27.937Z,100550.61
2023-05-08T20:34:01.520Z,100551.36
2023-05-08T20:36:38.431Z,100551.36
2023-05-08T20:39:09.582Z,100556.67
2023-05-08T20:41:42.703Z,100548.14
2023-05-08T20:44:18.188Z,100544.66
2023-05-08T20:46:53.921Z,100554.89
2023-05-08T20:49:27.085Z,100551.42
2023-05-08T20:52:00.504Z,100553.11
2023-05-08T20:54:37.291Z,100550.45
2023-05-08T20:57:14.475Z,100548.61
2023-05-08T20:59:47.900Z,100553.67
2023-05-08T21:02:21.105Z,100554.36
2023-05-08T21:04:54.332Z,100555.98
2023-05-08T21:07:27.805Z,100555.86
2023-05-08T21:10:00.948Z,100555.64
2023-05-08T21:12:34.708Z,100553.80
2023-05-08T21:15:10.384Z,100554.55
2023-05-08T21:20:35.575Z,100555.13
2023-05-08T21:23:08.687Z,100556.63
2023-05-08T21:25:41.694Z,100556.50
2023-05-08T21:28:15.178Z,100556.57
2023-05-08T21:30:48.716Z,100555.82
2023-05-08T21:33:21.957Z,100562.92
2023-05-08T21:36:13.576Z,100559.52
2023-05-08T21:38:46.905Z,100555.13
2023-05-08T21:41:20.074Z,100555.13
2023-05-08T21:43:53.354Z,100554.23
2023-05-08T21:46:26.802Z,100559.42
2023-05-08T21:49:03.203Z,100556.76
2023-05-08T21:51:36.357Z,100557.50
2023-05-08T21:54:10.266Z,100557.25
2023-05-08T21:56:43.321Z,100564.74
2023-05-08T21:59:16.307Z,100563.58
2023-05-08T22:01:49.542Z,100558.09
2023-05-08T22:04:28.065Z,100557.80
2023-05-08T22:07:04.220Z,100564.47
2023-05-08T22:09:37.352Z,100564.27
2023-05-08T22:12:11.219Z,100564.04
2023-05-08T22:14:44.461Z,100566.50
2023-05-08T22:17:17.606Z,100559.36
2023-05-08T22:19:50.803Z,100558.48
2023-05-08T22:22:23.815Z,100562.93
2023-05-08T22:24:57.620Z,100556.13
2023-05-08T22:27:30.701Z,100561.45
2023-05-08T22:30:03.829Z,100560.58
2023-05-08T22:32:37.387Z,100560.58
2023-05-08T22:35:11.654Z,100563.06
2023-05-08T22:37:46.756Z,100569.90
2023-05-08T22:40:21.846Z,100568.92
2023-05-08T22:42:58.427Z,100566.27
2023-05-08T22:45:31.820Z,100567.81
2023-05-08T22:48:06.671Z,100570.27
2023-05-08T22:50:39.956Z,100568.42
2023-05-08T22:53:13.390Z,100570.03
2023-05-08T22:55:46.725Z,100562.19
2023-05-08T22:58:20.103Z,100565.59
2023-05-08T23:00:53.360Z,100560.27
2023-05-08T23:03:28.422Z,100564.48
2023-05-08T23:06:01.870Z,100561.75
2023-05-08T23:08:35.165Z,100563.36
2023-05-08T23:11:08.520Z,100563.22
2023-05-08T23:13:41.950Z,100567.36
2023-05-08T23:16:15.275Z,100567.29
2023-05-08T23:18:48.652Z,100565.37
2023-05-08T23:21:21.936Z,100566.03
2023-05-08T23:23:55.393Z,100563.20
2023-05-08T23:26:29.026Z,100565.65
2023-05-08T23:29:02.405Z,100573.25
2023-05-08T23:31:35.828Z,100567.92
2023-05-08T23:34:12.759Z,100566.80
2023-05-08T23:36:46.371Z,100563.02
2023-05-08T23:39:19.712Z,100564.48
2023-05-08T23:41:53.232Z,100563.44
2023-05-08T23:44:29.871Z,100573.58
2023-05-08T23:47:03.174Z,100569.86
2023-05-08T23:49:37.723Z,100569.68
2023-05-08T23:52:10.926Z,100561.77
2023-05-08T23:54:44.382Z,100573.80
2023-05-08T23:57:17.623Z,100571.94
2023-05-08T23:59:50.724Z,100573.58
